Time;durP1;ratioP1;P1;durP2;ratioP2;P2;SDS_P1;SDS_P2;PMS_P1;PMS_P2;Temp;Humidity;BMP_temperature;BMP_pressure;BME280_temperature;BME280_humidity;BME280_pressure;Samples;Min_cycle;Max_cycle;Signal;HPM_P1;HPM_P2
2023/09/25 00:01:54;;;;;;;5.72;3.80;;;;;;;;;;4991789;28;20057;-65
2023/09/25 00:04:25;;;;;;;6.05;3.80;;;;;;;;;;4989713;28;20062;-66
2023/09/25 00:06:50;;;;;;;9.07;3.42;;;;;;;;;;4985589;28;20022;-65
2023/09/25 00:09:15;;;;;;;9.55;3.83;;;;;;;;;;4991465;28;20028;-65
2023/09/25 00:11:40;;;;;;;9.35;3.30;;;;;;;;;;4999236;28;20019;-65
2023/09/25 00:14:06;;;;;;;5.78;3.42;;;;;;;;;;4994098;28;20772;-63
2023/09/25 00:16:31;;;;;;;7.10;3.47;;;;;;;;;;4991878;28;20699;-66
2023/09/25 00:18:56;;;;;;;6.32;3.53;;;;;;;;;;4991525;28;20029;-67
2023/09/25 00:21:21;;;;;;;10.52;4.10;;;;;;;;;;4990972;28;20025;-66
2023/09/25 00:23:46;;;;;;;8.98;3.50;;;;;;;;;;4992306;28;20013;-62
2023/09/25 00:26:14;;;;;;;6.43;3.60;;;;;;;;;;4990745;28;20014;-66
2023/09/25 00:28:40;;;;;;;5.60;3.70;;;;;;;;;;4984729;28;20409;-64
2023/09/25 00:31:05;;;;;;;5.95;3.50;;;;;;;;;;4999711;28;20104;-66
2023/09/25 00:33:30;;;;;;;9.52;3.67;;;;;;;;;;4992475;28;20107;-66
2023/09/25 00:35:56;;;;;;;7.47;4.00;;;;;;;;;;4990602;28;20496;-67
2023/09/25 00:38:22;;;;;;;6.95;3.83;;;;;;;;;;4986251;28;20030;-66
2023/09/25 00:40:48;;;;;;;7.38;3.97;;;;;;;;;;4990884;28;20026;-66
2023/09/25 00:43:13;;;;;;;8.48;4.40;;;;;;;;;;4990742;28;20014;-66
2023/09/25 00:45:40;;;;;;;6.63;3.40;;;;;;;;;;4993293;28;20138;-63
2023/09/25 00:48:06;;;;;;;11.63;4.30;;;;;;;;;;4991525;28;20026;-66
2023/09/25 00:50:32;;;;;;;8.95;4.05;;;;;;;;;;4991141;28;20030;-65
2023/09/25 00:53:09;;;;;;;5.90;3.60;;;;;;;;;;4990734;28;20084;-65
2023/09/25 00:55:35;;;;;;;6.15;3.70;;;;;;;;;;4991702;28;20168;-67
2023/09/25 00:58:00;;;;;;;5.97;3.58;;;;;;;;;;4992684;28;20018;-63
2023/09/25 01:00:26;;;;;;;9.02;4.03;;;;;;;;;;4992484;28;20101;-66
2023/09/25 01:02:51;;;;;;;8.35;4.60;;;;;;;;;;4991226;28;20050;-66
2023/09/25 01:05:17;;;;;;;9.63;4.32;;;;;;;;;;4990743;28;20014;-63
2023/09/25 01:07:42;;;;;;;8.30;4.15;;;;;;;;;;4990845;28;20026;-67
2023/09/25 01:10:17;;;;;;;7.05;3.88;;;;;;;;;;4990807;28;20466;-64
2023/09/25 01:12:43;;;;;;;6.63;4.20;;;;;;;;;;4994831;28;20096;-66
2023/09/25 01:15:08;;;;;;;10.23;4.88;;;;;;;;;;4993958;28;20447;-63
2023/09/25 01:17:34;;;;;;;8.10;4.20;;;;;;;;;;4990032;28;20053;-66
2023/09/25 01:20:17;;;;;;;7.43;4.25;;;;;;;;;;4994558;28;20026;-65
2023/09/25 01:22:46;;;;;;;7.75;4.10;;;;;;;;;;4998638;28;20011;-63
2023/09/25 01:25:11;;;;;;;8.98;4.15;;;;;;;;;;4990094;28;20038;-63
2023/09/25 01:27:40;;;;;;;5.90;3.90;;;;;;;;;;4990267;28;20007;-66
2023/09/25 01:30:06;;;;;;;6.38;4.20;;;;;;;;;;4996036;28;20049;-66
2023/09/25 01:32:31;;;;;;;8.10;4.20;;;;;;;;;;4991235;28;20105;-65
2023/09/25 01:34:57;;;;;;;7.47;4.35;;;;;;;;;;4988928;28;20109;-66
2023/09/25 01:37:22;;;;;;;8.80;4.03;;;;;;;;;;4987793;28;20014;-64
2023/09/25 01:39:47;;;;;;;7.00;3.50;;;;;;;;;;4997079;28;20022;-67
2023/09/25 01:42:13;;;;;;;8.40;4.32;;;;;;;;;;4995188;28;20540;-64
2023/09/25 01:44:38;;;;;;;7.07;4.20;;;;;;;;;;4989360;28;20042;-65
2023/09/25 01:47:04;;;;;;;8.48;3.95;;;;;;;;;;4987398;28;20560;-64
2023/09/25 01:49:31;;;;;;;6.35;4.03;;;;;;;;;;4992086;28;20019;-64
2023/09/25 01:51:56;;;;;;;8.25;4.07;;;;;;;;;;4995742;28;20021;-65
2023/09/25 01:54:22;;;;;;;9.57;4.60;;;;;;;;;;4992259;28;20153;-64
2023/09/25 01:56:47;;;;;;;6.63;4.07;;;;;;;;;;4990779;28;20022;-65
2023/09/25 01:59:13;;;;;;;10.73;4.88;;;;;;;;;;4990848;28;20037;-65
2023/09/25 02:01:38;;;;;;;6.68;4.55;;;;;;;;;;4997106;28;20565;-67
2023/09/25 02:04:04;;;;;;;7.82;3.75;;;;;;;;;;4990450;28;20633;-66
2023/09/25 02:06:29;;;;;;;10.90;4.68;;;;;;;;;;4989678;28;20493;-66
2023/09/25 02:08:55;;;;;;;9.13;4.20;;;;;;;;;;4989991;28;20125;-65
2023/09/25 02:11:20;;;;;;;8.93;4.07;;;;;;;;;;4993653;28;20060;-67
2023/09/25 02:13:48;;;;;;;10.70;4.63;;;;;;;;;;4990417;28;20040;-66
2023/09/25 02:16:13;;;;;;;6.88;4.32;;;;;;;;;;4993891;28;20413;-64
2023/09/25 02:18:39;;;;;;;7.25;4.18;;;;;;;;;;4989868;28;20548;-66
2023/09/25 02:21:04;;;;;;;9.90;4.60;;;;;;;;;;4987353;28;20433;-66
2023/09/25 02:23:29;;;;;;;6.28;3.97;;;;;;;;;;4990353;28;20081;-61
2023/09/25 02:25:54;;;;;;;7.50;4.30;;;;;;;;;;4989017;28;20477;-66
2023/09/25 02:28:20;;;;;;;8.85;4.70;;;;;;;;;;4992391;28;20026;-64
2023/09/25 02:30:45;;;;;;;7.20;4.20;;;;;;;;;;4996331;28;20033;-66
2023/09/25 02:33:10;;;;;;;10.15;5.00;;;;;;;;;;4996547;28;20101;-65
2023/09/25 02:35:36;;;;;;;8.18;4.30;;;;;;;;;;4991497;28;20097;-65
2023/09/25 02:38:02;;;;;;;9.60;4.65;;;;;;;;;;4993505;28;20030;-64
2023/09/25 02:40:27;;;;;;;7.35;4.38;;;;;;;;;;4993411;28;20490;-69
2023/09/25 02:42:52;;;;;;;6.45;4.18;;;;;;;;;;4993653;28;20023;-66
2023/09/25 02:45:17;;;;;;;6.75;4.22;;;;;;;;;;4994520;28;20032;-66
2023/09/25 02:47:43;;;;;;;10.93;4.70;;;;;;;;;;4993387;28;20018;-65
2023/09/25 02:50:09;;;;;;;11.32;4.80;;;;;;;;;;4992808;28;20099;-63
2023/09/25 02:52:34;;;;;;;11.15;4.22;;;;;;;;;;4992917;28;20032;-65
2023/09/25 02:54:59;;;;;;;7.97;4.43;;;;;;;;;;4995747;28;20141;-65
2023/09/25 02:57:25;;;;;;;9.35;4.70;;;;;;;;;;4993293;28;20114;-65
2023/09/25 02:59:50;;;;;;;7.05;4.18;;;;;;;;;;4992600;28;20119;-63
2023/09/25 03:02:16;;;;;;;6.95;4.55;;;;;;;;;;4994715;28;20030;-66
2023/09/25 03:04:41;;;;;;;7.13;4.50;;;;;;;;;;4992834;28;20113;-65
2023/09/25 03:07:06;;;;;;;9.85;4.68;;;;;;;;;;4992604;28;20458;-66
2023/09/25 03:09:31;;;;;;;6.93;3.80;;;;;;;;;;4992723;28;20031;-65
2023/09/25 03:11:57;;;;;;;5.97;3.83;;;;;;;;;;4992885;28;20022;-66
2023/09/25 03:14:22;;;;;;;7.80;4.30;;;;;;;;;;4992814;28;20476;-67
2023/09/25 03:16:47;;;;;;;6.05;4.25;;;;;;;;;;4995205;28;20054;-65
2023/09/25 03:19:13;;;;;;;24.17;12.57;;;;;;;;;;4995874;28;20037;-66
2023/09/25 03:21:39;;;;;;;31.15;15.65;;;;;;;;;;4994046;28;20029;-65
2023/09/25 03:24:05;;;;;;;12.15;7.15;;;;;;;;;;4993369;28;20014;-66
2023/09/25 03:26:30;;;;;;;14.82;5.55;;;;;;;;;;4991810;28;20022;-64
2023/09/25 03:28:55;;;;;;;9.02;4.45;;;;;;;;;;4992563;28;20032;-66
2023/09/25 03:31:20;;;;;;;11.32;4.75;;;;;;;;;;4999883;28;20481;-66
2023/09/25 03:33:46;;;;;;;12.35;5.40;;;;;;;;;;4994382;28;20509;-67
2023/09/25 03:36:12;;;;;;;10.30;4.82;;;;;;;;;;4991631;28;20038;-66
2023/09/25 03:38:37;;;;;;;9.95;4.68;;;;;;;;;;4991526;28;20397;-67
2023/09/25 03:41:02;;;;;;;7.97;4.70;;;;;;;;;;4992163;28;20026;-65
2023/09/25 03:43:28;;;;;;;7.90;4.40;;;;;;;;;;4991748;28;20014;-65
2023/09/25 03:45:53;;;;;;;8.75;4.90;;;;;;;;;;4991875;28;20021;-66
2023/09/25 03:48:18;;;;;;;9.18;4.93;;;;;;;;;;4994524;28;20042;-65
2023/09/25 03:50:43;;;;;;;7.70;4.70;;;;;;;;;;4991766;28;20034;-64
2023/09/25 03:53:10;;;;;;;9.07;4.65;;;;;;;;;;4991546;28;20448;-65
2023/09/25 03:55:36;;;;;;;12.55;5.13;;;;;;;;;;4991266;28;20030;-64
2023/09/25 03:58:01;;;;;;;9.00;4.68;;;;;;;;;;4991459;28;20453;-65
2023/09/25 04:00:26;;;;;;;11.48;5.25;;;;;;;;;;4990936;28;20102;-64
2023/09/25 04:02:52;;;;;;;9.25;5.05;;;;;;;;;;4995414;28;20020;-66
2023/09/25 04:05:17;;;;;;;6.57;4.38;;;;;;;;;;4991038;28;20018;-63
2023/09/25 04:07:43;;;;;;;7.22;5.13;;;;;;;;;;4991637;28;20018;-66
2023/09/25 04:10:08;;;;;;;7.35;4.75;;;;;;;;;;4992077;28;20018;-66
2023/09/25 04:12:34;;;;;;;11.85;5.30;;;;;;;;;;4993690;28;20053;-66
2023/09/25 04:15:00;;;;;;;9.00;4.57;;;;;;;;;;4990543;28;20023;-64
2023/09/25 04:17:25;;;;;;;8.18;4.88;;;;;;;;;;4990684;28;20184;-64
2023/09/25 04:19:50;;;;;;;12.27;5.75;;;;;;;;;;4994718;28;20020;-66
2023/09/25 04:22:16;;;;;;;11.13;5.53;;;;;;;;;;4992309;28;20037;-65
2023/09/25 04:24:41;;;;;;;16.13;5.93;;;;;;;;;;4991082;28;20516;-66
2023/09/25 04:27:09;;;;;;;10.85;5.85;;;;;;;;;;4991126;28;20085;-66
2023/09/25 04:29:35;;;;;;;13.02;5.38;;;;;;;;;;4991431;28;20061;-63
2023/09/25 04:32:00;;;;;;;9.38;5.57;;;;;;;;;;4992528;28;20513;-64
2023/09/25 04:34:26;;;;;;;10.63;6.47;;;;;;;;;;4990096;28;20499;-67
2023/09/25 04:36:52;;;;;;;9.35;5.72;;;;;;;;;;4991486;28;20018;-68
2023/09/25 04:39:17;;;;;;;9.02;5.60;;;;;;;;;;4997624;28;20032;-65
2023/09/25 04:41:46;;;;;;;9.57;5.50;;;;;;;;;;4991364;28;20524;-67
2023/09/25 04:44:12;;;;;;;10.60;6.60;;;;;;;;;;4989223;28;20014;-66
2023/09/25 04:46:37;;;;;;;8.30;5.68;;;;;;;;;;4996859;28;20533;-65
2023/09/25 04:49:02;;;;;;;11.00;5.85;;;;;;;;;;4993734;28;20026;-66
2023/09/25 04:51:28;;;;;;;8.68;5.47;;;;;;;;;;4989627;28;20156;-67
2023/09/25 04:53:53;;;;;;;9.45;6.18;;;;;;;;;;4989978;28;20524;-67
2023/09/25 04:56:21;;;;;;;13.02;7.47;;;;;;;;;;4990290;28;20057;-67
2023/09/25 04:58:47;;;;;;;9.03;5.50;;;;;;;;;;4991140;28;20080;-63
2023/09/25 05:01:12;;;;;;;13.27;6.63;;;;;;;;;;4993326;28;20018;-67
2023/09/25 05:03:40;;;;;;;12.32;6.18;;;;;;;;;;4990458;28;20148;-66
2023/09/25 05:06:05;;;;;;;12.10;7.35;;;;;;;;;;4989769;28;20023;-66
2023/09/25 05:08:30;;;;;;;13.48;7.10;;;;;;;;;;4989999;28;20019;-67
2023/09/25 05:10:57;;;;;;;14.85;6.35;;;;;;;;;;4990408;28;20042;-66
2023/09/25 05:13:22;;;;;;;11.10;6.07;;;;;;;;;;4989060;28;20046;-66
2023/09/25 05:15:48;;;;;;;13.88;6.10;;;;;;;;;;4989472;28;20077;-65
2023/09/25 05:18:13;;;;;;;11.88;6.13;;;;;;;;;;4992184;28;20042;-65
2023/09/25 05:20:38;;;;;;;11.05;6.20;;;;;;;;;;4990071;28;20026;-66
2023/09/25 05:23:03;;;;;;;13.90;6.60;;;;;;;;;;4991142;28;20041;-65
2023/09/25 05:25:28;;;;;;;12.00;6.30;;;;;;;;;;4989542;28;20024;-65
2023/09/25 05:27:55;;;;;;;14.27;6.75;;;;;;;;;;4997048;28;20056;-64
2023/09/25 05:30:20;;;;;;;9.35;6.20;;;;;;;;;;4987265;28;20027;-66
2023/09/25 05:32:52;;;;;;;14.98;7.10;;;;;;;;;;4996244;28;20025;-67
2023/09/25 05:35:18;;;;;;;13.27;8.13;;;;;;;;;;4986762;28;20015;-64
2023/09/25 05:37:45;;;;;;;11.40;7.43;;;;;;;;;;4992235;28;20014;-65
2023/09/25 05:40:11;;;;;;;15.38;7.50;;;;;;;;;;4994360;28;20110;-66
2023/09/25 05:42:40;;;;;;;11.15;7.10;;;;;;;;;;4993074;28;20417;-64
2023/09/25 05:45:06;;;;;;;11.30;6.45;;;;;;;;;;4986739;28;20483;-63
2023/09/25 05:47:31;;;;;;;9.18;6.43;;;;;;;;;;4988778;28;20091;-64
2023/09/25 05:49:56;;;;;;;9.80;6.53;;;;;;;;;;4989987;28;20026;-63
2023/09/25 05:52:22;;;;;;;11.18;6.55;;;;;;;;;;4989360;28;20045;-68
2023/09/25 05:54:49;;;;;;;9.70;6.43;;;;;;;;;;4989410;28;20458;-64
2023/09/25 05:57:14;;;;;;;12.05;6.20;;;;;;;;;;4989505;28;20030;-64
2023/09/25 05:59:39;;;;;;;8.73;5.93;;;;;;;;;;4990905;28;21470;-64
2023/09/25 06:02:04;;;;;;;11.30;6.43;;;;;;;;;;4996994;28;20123;-63
2023/09/25 06:04:33;;;;;;;17.42;7.28;;;;;;;;;;4993724;28;20129;-67
2023/09/25 06:06:59;;;;;;;15.15;7.35;;;;;;;;;;4997472;28;20035;-67
2023/09/25 06:09:24;;;;;;;12.07;7.22;;;;;;;;;;4993546;28;20041;-65
2023/09/25 06:11:49;;;;;;;12.00;7.13;;;;;;;;;;4992458;28;20022;-65
2023/09/25 06:14:14;;;;;;;9.77;6.38;;;;;;;;;;4993675;28;20505;-66
2023/09/25 06:16:40;;;;;;;12.50;6.32;;;;;;;;;;4985843;28;20662;-66
2023/09/25 06:19:05;;;;;;;10.25;6.57;;;;;;;;;;4993458;28;20520;-67
2023/09/25 06:21:31;;;;;;;15.55;6.93;;;;;;;;;;4992474;28;20117;-67
2023/09/25 06:23:57;;;;;;;10.93;6.28;;;;;;;;;;4997569;28;20366;-67
2023/09/25 06:26:23;;;;;;;12.07;6.32;;;;;;;;;;4993279;28;20027;-67
2023/09/25 06:28:48;;;;;;;15.38;6.97;;;;;;;;;;4993126;28;20581;-66
2023/09/25 06:31:14;;;;;;;13.68;6.63;;;;;;;;;;4992820;28;20109;-66
2023/09/25 06:33:40;;;;;;;11.32;6.15;;;;;;;;;;4998364;28;20098;-64
2023/09/25 06:36:05;;;;;;;13.07;6.15;;;;;;;;;;4996157;28;20033;-64
2023/09/25 06:38:30;;;;;;;12.07;6.53;;;;;;;;;;4993072;28;20053;-66
2023/09/25 06:40:56;;;;;;;10.05;5.93;;;;;;;;;;4992990;28;20188;-65
2023/09/25 06:43:21;;;;;;;8.90;6.22;;;;;;;;;;4992747;28;20038;-67
2023/09/25 06:45:46;;;;;;;17.13;6.03;;;;;;;;;;4989667;28;20101;-66
2023/09/25 06:48:12;;;;;;;10.85;6.28;;;;;;;;;;4998516;28;20367;-65
2023/09/25 06:50:37;;;;;;;13.45;6.43;;;;;;;;;;4993311;28;20011;-64
2023/09/25 06:53:03;;;;;;;9.02;5.47;;;;;;;;;;4993272;28;20500;-64
2023/09/25 06:55:28;;;;;;;13.00;6.00;;;;;;;;;;4993242;28;20014;-66
2023/09/25 06:57:53;;;;;;;12.00;6.45;;;;;;;;;;4993836;28;20022;-65
2023/09/25 07:00:19;;;;;;;8.80;5.50;;;;;;;;;;4993183;28;20101;-66
2023/09/25 07:02:44;;;;;;;15.48;6.53;;;;;;;;;;4998307;28;20021;-65
2023/09/25 07:05:10;;;;;;;13.38;6.57;;;;;;;;;;4994329;28;20434;-67
2023/09/25 07:07:38;;;;;;;11.85;6.05;;;;;;;;;;4994208;28;20101;-65
2023/09/25 07:10:06;;;;;;;16.08;6.88;;;;;;;;;;4994042;28;20035;-66
2023/09/25 07:12:32;;;;;;;16.85;6.28;;;;;;;;;;4993046;28;20029;-66
2023/09/25 07:14:58;;;;;;;8.65;5.80;;;;;;;;;;4993743;28;20101;-66
2023/09/25 07:17:24;;;;;;;10.25;6.57;;;;;;;;;;4997213;28;20013;-66
2023/09/25 07:19:51;;;;;;;30.42;6.68;;;;;;;;;;4976573;28;20037;-66
2023/09/25 07:22:16;;;;;;;15.00;7.60;;;;;;;;;;4993022;28;20406;-66
2023/09/25 07:24:42;;;;;;;16.38;6.70;;;;;;;;;;4993358;28;20014;-66
2023/09/25 07:27:07;;;;;;;9.13;6.20;;;;;;;;;;4993293;28;20014;-66
2023/09/25 07:29:32;;;;;;;11.50;6.80;;;;;;;;;;4993034;28;20022;-64
2023/09/25 07:31:58;;;;;;;13.07;6.60;;;;;;;;;;4996261;28;20030;-65
2023/09/25 07:34:23;;;;;;;15.82;6.63;;;;;;;;;;4995027;28;20169;-68
2023/09/25 07:36:49;;;;;;;11.70;6.68;;;;;;;;;;4993747;28;20077;-67
2023/09/25 07:39:18;;;;;;;8.00;5.50;;;;;;;;;;4994198;28;20022;-63
2023/09/25 07:41:43;;;;;;;;;;;;;;;;;;4988181;28;20072;-67
2023/09/25 07:44:12;;;;;;;14.27;7.25;;;;;;;;;;4996074;28;20325;-66
2023/09/25 07:46:37;;;;;;;10.65;6.43;;;;;;;;;;4997889;28;20026;-67
2023/09/25 07:49:02;;;;;;;10.02;6.10;;;;;;;;;;4995233;28;20026;-65
2023/09/25 07:51:29;;;;;;;9.23;6.25;;;;;;;;;;4993300;28;20458;-68
2023/09/25 07:53:58;;;;;;;13.02;6.35;;;;;;;;;;4993802;28;20030;-64
2023/09/25 07:56:23;;;;;;;26.40;6.25;;;;;;;;;;4999403;28;20023;-65
2023/09/25 07:58:48;;;;;;;11.60;5.97;;;;;;;;;;4993448;28;20096;-66
2023/09/25 08:01:14;;;;;;;14.05;6.82;;;;;;;;;;4993221;28;20097;-66
2023/09/25 08:03:39;;;;;;;11.18;6.05;;;;;;;;;;4994898;28;20535;-67
2023/09/25 08:06:05;;;;;;;11.60;6.20;;;;;;;;;;4997556;28;20034;-66
2023/09/25 08:08:31;;;;;;;13.55;5.90;;;;;;;;;;4993232;28;20018;-67
2023/09/25 08:10:56;;;;;;;9.70;5.20;;;;;;;;;;4994864;28;20174;-67
2023/09/25 08:13:21;;;;;;;11.02;5.78;;;;;;;;;;4995035;28;20532;-64
2023/09/25 08:15:47;;;;;;;8.07;5.40;;;;;;;;;;4992572;28;20018;-67
2023/09/25 08:18:12;;;;;;;11.57;5.85;;;;;;;;;;4993409;28;20440;-66
2023/09/25 08:20:39;;;;;;;12.25;5.50;;;;;;;;;;4995105;28;20019;-67
2023/09/25 08:23:04;;;;;;;7.47;4.82;;;;;;;;;;4991551;28;20077;-66
2023/09/25 08:25:30;;;;;;;8.00;4.53;;;;;;;;;;4996874;28;20022;-68
2023/09/25 08:27:55;;;;;;;9.48;4.50;;;;;;;;;;4992299;28;20421;-68
2023/09/25 08:30:21;;;;;;;11.80;4.75;;;;;;;;;;4991706;28;20057;-65
2023/09/25 08:32:46;;;;;;;10.75;5.35;;;;;;;;;;4992821;28;20025;-67
2023/09/25 08:35:11;;;;;;;10.60;4.93;;;;;;;;;;4993139;28;20037;-65
2023/09/25 08:37:38;;;;;;;10.05;5.55;;;;;;;;;;4992477;28;20022;-66
2023/09/25 08:40:05;;;;;;;9.70;4.25;;;;;;;;;;4992615;28;20030;-65
2023/09/25 08:42:30;;;;;;;15.30;4.45;;;;;;;;;;4991892;28;20096;-67
2023/09/25 08:44:59;;;;;;;9.80;4.25;;;;;;;;;;4974370;28;20101;-66
2023/09/25 08:47:25;;;;;;;15.07;5.03;;;;;;;;;;4992030;28;20053;-66
2023/09/25 08:49:52;;;;;;;25.17;4.30;;;;;;;;;;4996804;28;20026;-65
2023/09/25 08:52:17;;;;;;;11.00;4.20;;;;;;;;;;4992779;28;20033;-66
2023/09/25 08:54:43;;;;;;;8.13;3.85;;;;;;;;;;4991865;28;20022;-66
2023/09/25 08:57:09;;;;;;;11.70;3.72;;;;;;;;;;4991384;28;20097;-67
2023/09/25 08:59:36;;;;;;;8.13;3.47;;;;;;;;;;4996534;28;20046;-66
2023/09/25 09:02:01;;;;;;;6.88;3.92;;;;;;;;;;4993415;28;20050;-65
2023/09/25 09:04:27;;;;;;;10.13;3.97;;;;;;;;;;4993278;28;20033;-67
2023/09/25 09:06:52;;;;;;;9.95;3.83;;;;;;;;;;4998710;28;20062;-66
2023/09/25 09:09:18;;;;;;;7.22;4.00;;;;;;;;;;4993408;28;20023;-65
2023/09/25 09:11:50;;;;;;;11.45;4.10;;;;;;;;;;4993370;28;20151;-66
2023/09/25 09:14:30;;;;;;;10.40;3.95;;;;;;;;;;4991123;28;20026;-66
2023/09/25 09:16:58;;;;;;;8.80;3.83;;;;;;;;;;4985814;28;20086;-66
2023/09/25 09:19:23;;;;;;;6.50;3.53;;;;;;;;;;4991151;28;20126;-66
2023/09/25 09:22:00;;;;;;;7.63;3.45;;;;;;;;;;4990063;28;20494;-67
2023/09/25 09:24:28;;;;;;;5.88;3.70;;;;;;;;;;4988714;28;20018;-65
2023/09/25 09:26:53;;;;;;;6.55;3.78;;;;;;;;;;4991800;28;20485;-64
2023/09/25 09:29:19;;;;;;;11.80;4.68;;;;;;;;;;4991584;28;20481;-65
2023/09/25 09:31:45;;;;;;;7.03;2.72;;;;;;;;;;4993872;28;20517;-67
2023/09/25 09:34:10;;;;;;;8.02;3.13;;;;;;;;;;4987799;28;20026;-67
2023/09/25 09:36:35;;;;;;;8.48;3.33;;;;;;;;;;4993473;28;20216;-65
2023/09/25 09:39:03;;;;;;;8.80;2.92;;;;;;;;;;4991695;28;20030;-66
2023/09/25 09:41:29;;;;;;;5.80;3.15;;;;;;;;;;4991584;28;20018;-65
2023/09/25 09:43:54;;;;;;;12.75;3.63;;;;;;;;;;4992052;28;20022;-67
2023/09/25 09:46:23;;;;;;;6.53;3.03;;;;;;;;;;4991003;28;20022;-67
2023/09/25 09:48:51;;;;;;;5.47;2.97;;;;;;;;;;4990937;28;20018;-65
2023/09/25 09:51:18;;;;;;;9.80;3.65;;;;;;;;;;4996124;28;20108;-66
2023/09/25 09:53:44;;;;;;;11.00;3.38;;;;;;;;;;4990830;28;20097;-65
2023/09/25 09:56:09;;;;;;;9.07;3.58;;;;;;;;;;4990291;28;20093;-66
2023/09/25 09:58:36;;;;;;;7.30;3.47;;;;;;;;;;4991584;28;20030;-67
2023/09/25 10:01:02;;;;;;;10.95;4.88;;;;;;;;;;4990630;28;20033;-67
2023/09/25 10:03:31;;;;;;;7.53;3.92;;;;;;;;;;4990191;28;20513;-64
2023/09/25 10:05:56;;;;;;;7.13;3.45;;;;;;;;;;4993687;28;20105;-65
2023/09/25 10:08:21;;;;;;;6.38;3.22;;;;;;;;;;4993675;28;20150;-66
2023/09/25 10:10:48;;;;;;;6.32;3.30;;;;;;;;;;4991009;28;20489;-65
2023/09/25 10:13:17;;;;;;;16.23;5.30;;;;;;;;;;4998507;28;20025;-67
2023/09/25 10:15:53;;;;;;;9.77;4.15;;;;;;;;;;4987151;28;20018;-67
2023/09/25 10:18:19;;;;;;;9.23;4.30;;;;;;;;;;4990327;28;20022;-67
2023/09/25 10:20:45;;;;;;;7.90;3.50;;;;;;;;;;4990046;28;20073;-65
2023/09/25 10:23:16;;;;;;;9.55;3.42;;;;;;;;;;4988809;28;20026;-67
2023/09/25 10:25:44;;;;;;;6.15;3.03;;;;;;;;;;4994519;28;20022;-66
2023/09/25 10:28:22;;;;;;;6.65;3.40;;;;;;;;;;4988887;28;20023;-65
2023/09/25 10:30:48;;;;;;;5.45;3.00;;;;;;;;;;4989204;28;20015;-66
2023/09/25 10:33:15;;;;;;;8.60;2.97;;;;;;;;;;4987329;28;20090;-66
2023/09/25 10:35:40;;;;;;;9.50;4.32;;;;;;;;;;4989412;28;20474;-66
2023/09/25 10:38:28;;;;;;;8.63;4.15;;;;;;;;;;4990576;28;20125;-66
2023/09/25 10:40:56;;;;;;;7.13;3.25;;;;;;;;;;4984006;28;20018;-67
2023/09/25 10:43:22;;;;;;;5.50;3.17;;;;;;;;;;4989921;28;20018;-66
2023/09/25 10:45:48;;;;;;;5.50;2.83;;;;;;;;;;4972637;28;20113;-66
2023/09/25 10:48:13;;;;;;;6.22;2.88;;;;;;;;;;4990935;28;20014;-66
2023/09/25 10:50:39;;;;;;;6.15;3.30;;;;;;;;;;4992436;28;20485;-65
2023/09/25 10:53:05;;;;;;;10.50;3.63;;;;;;;;;;4992870;28;20026;-64
2023/09/25 10:55:32;;;;;;;5.72;3.00;;;;;;;;;;4992560;28;20025;-65
2023/09/25 10:57:57;;;;;;;5.00;2.30;;;;;;;;;;4994903;28;20085;-66
2023/09/25 11:00:23;;;;;;;7.65;2.58;;;;;;;;;;4993105;28;20405;-64
2023/09/25 11:02:48;;;;;;;7.50;2.88;;;;;;;;;;4992446;28;20018;-66
2023/09/25 11:05:13;;;;;;;7.53;3.15;;;;;;;;;;5032404;23;20168;-65
2023/09/25 11:07:39;;;;;;;5.93;2.85;;;;;;;;;;5028819;28;20331;-67
2023/09/25 11:10:05;;;;;;;5.38;2.90;;;;;;;;;;5027204;28;20104;-67
2023/09/25 11:12:33;;;;;;;5.65;2.38;;;;;;;;;;5030415;28;20024;-68
2023/09/25 11:14:58;;;;;;;5.10;2.78;;;;;;;;;;5008093;28;20022;-68
2023/09/25 11:17:24;;;;;;;5.68;2.58;;;;;;;;;;5028275;28;20036;-65
2023/09/25 11:19:51;;;;;;;5.07;2.55;;;;;;;;;;5030858;28;20522;-68
2023/09/25 11:22:18;;;;;;;8.45;2.47;;;;;;;;;;5023460;28;20139;-68
2023/09/25 11:24:43;;;;;;;9.68;2.65;;;;;;;;;;5003157;28;20033;-65
2023/09/25 11:27:09;;;;;;;7.40;2.97;;;;;;;;;;5029793;28;20022;-66
2023/09/25 11:29:37;;;;;;;4.80;2.63;;;;;;;;;;5029286;28;20041;-69
2023/09/25 11:32:03;;;;;;;7.00;2.67;;;;;;;;;;5026905;28;20107;-66
2023/09/25 11:34:29;;;;;;;11.75;2.75;;;;;;;;;;5027980;28;20071;-67
2023/09/25 11:36:54;;;;;;;12.40;2.58;;;;;;;;;;5011783;28;20029;-66
2023/09/25 11:39:19;;;;;;;5.65;1.98;;;;;;;;;;5029781;28;20460;-66
2023/09/25 11:41:45;;;;;;;5.38;2.80;;;;;;;;;;5027917;28;20031;-67
2023/09/25 11:44:10;;;;;;;6.03;2.40;;;;;;;;;;5025827;28;20013;-67
2023/09/25 11:46:36;;;;;;;11.07;2.70;;;;;;;;;;5025006;28;20033;-65
2023/09/25 11:49:01;;;;;;;9.77;2.55;;;;;;;;;;5031232;28;20497;-67
2023/09/25 11:51:26;;;;;;;7.22;2.42;;;;;;;;;;5029012;28;20026;-65
2023/09/25 11:53:52;;;;;;;9.27;2.30;;;;;;;;;;5031743;28;20113;-64
2023/09/25 11:56:17;;;;;;;6.13;2.40;;;;;;;;;;5028343;28;20036;-65
2023/09/25 11:58:43;;;;;;;8.93;2.45;;;;;;;;;;5017123;28;20021;-65
2023/09/25 12:01:08;;;;;;;7.55;2.40;;;;;;;;;;5022150;28;20014;-68
2023/09/25 12:03:38;;;;;;;7.45;2.63;;;;;;;;;;5024022;28;20028;-67
2023/09/25 12:06:05;;;;;;;5.47;2.95;;;;;;;;;;5028069;28;20550;-65
2023/09/25 12:08:30;;;;;;;6.85;1.92;;;;;;;;;;5011336;28;20021;-68
2023/09/25 12:10:56;;;;;;;5.07;2.05;;;;;;;;;;5029294;28;20013;-67
2023/09/25 12:13:22;;;;;;;5.32;2.40;;;;;;;;;;5021965;28;20532;-65
2023/09/25 12:15:47;;;;;;;7.60;2.72;;;;;;;;;;5026906;28;20365;-66
2023/09/25 12:18:13;;;;;;;6.88;2.80;;;;;;;;;;5029348;28;20020;-69
2023/09/25 12:20:41;;;;;;;7.95;2.88;;;;;;;;;;5027425;28;20020;-67
2023/09/25 12:23:07;;;;;;;4.97;2.30;;;;;;;;;;5007736;28;20744;-68
2023/09/25 12:25:33;;;;;;;4.82;2.60;;;;;;;;;;5027747;28;20057;-65
2023/09/25 12:27:58;;;;;;;13.27;3.53;;;;;;;;;;5025789;28;20108;-68
2023/09/25 12:30:24;;;;;;;5.18;2.35;;;;;;;;;;5028490;28;20014;-67
2023/09/25 12:32:49;;;;;;;5.20;2.00;;;;;;;;;;5030644;28;20033;-67
2023/09/25 12:35:15;;;;;;;9.00;2.28;;;;;;;;;;5023795;28;20477;-67
2023/09/25 12:37:45;;;;;;;6.68;3.15;;;;;;;;;;5029061;28;20079;-68
2023/09/25 12:40:11;;;;;;;5.43;2.20;;;;;;;;;;5032387;28;20021;-67
2023/09/25 12:42:36;;;;;;;5.10;2.13;;;;;;;;;;5033198;28;20017;-65
2023/09/25 12:45:03;;;;;;;4.70;2.13;;;;;;;;;;5026368;28;20051;-68
2023/09/25 12:47:28;;;;;;;3.88;1.70;;;;;;;;;;5009126;28;20025;-68
2023/09/25 12:49:54;;;;;;;4.03;2.00;;;;;;;;;;5026743;28;20025;-67
2023/09/25 12:52:19;;;;;;;4.45;2.20;;;;;;;;;;5018445;28;20029;-68
2023/09/25 12:54:45;;;;;;;8.90;2.15;;;;;;;;;;5026800;28;20039;-65
2023/09/25 12:57:12;;;;;;;14.07;2.17;;;;;;;;;;5027660;28;20037;-66
2023/09/25 12:59:37;;;;;;;4.25;1.85;;;;;;;;;;5028231;28;20117;-68
2023/09/25 13:02:02;;;;;;;4.18;1.70;;;;;;;;;;5030050;28;20188;-67
2023/09/25 13:04:27;;;;;;;3.45;1.63;;;;;;;;;;5022539;28;20151;-67
2023/09/25 13:06:54;;;;;;;8.10;1.70;;;;;;;;;;5028116;28;20021;-64
2023/09/25 13:09:20;;;;;;;9.18;1.70;;;;;;;;;;5028056;28;20029;-66
2023/09/25 13:11:46;;;;;;;6.95;2.13;;;;;;;;;;5023975;28;20024;-66
2023/09/25 13:14:11;;;;;;;4.65;2.05;;;;;;;;;;5010235;28;20113;-64
2023/09/25 13:16:37;;;;;;;5.70;1.95;;;;;;;;;;5023363;28;20474;-67
2023/09/25 13:19:02;;;;;;;4.13;1.83;;;;;;;;;;5020474;28;20112;-67
2023/09/25 13:21:28;;;;;;;3.67;2.00;;;;;;;;;;5021936;28;20029;-67
2023/09/25 13:23:55;;;;;;;6.93;1.70;;;;;;;;;;5028783;28;20052;-68
2023/09/25 13:26:21;;;;;;;9.68;2.20;;;;;;;;;;5025629;28;20083;-67
2023/09/25 13:28:46;;;;;;;8.15;2.00;;;;;;;;;;5028406;28;20021;-67
2023/09/25 13:31:11;;;;;;;6.53;1.73;;;;;;;;;;5021704;28;20021;-65
2023/09/25 13:33:36;;;;;;;6.43;1.90;;;;;;;;;;5030902;28;20614;-65
2023/09/25 13:36:05;;;;;;;5.40;1.50;;;;;;;;;;5021991;28;20104;-66
2023/09/25 13:38:30;;;;;;;3.65;1.60;;;;;;;;;;5023557;28;20265;-68
2023/09/25 13:40:55;;;;;;;5.05;1.42;;;;;;;;;;5019969;28;20021;-68
2023/09/25 13:43:21;;;;;;;4.80;1.90;;;;;;;;;;5027581;28;20049;-63
2023/09/25 13:45:47;;;;;;;4.93;1.98;;;;;;;;;;5019659;28;20074;-67
2023/09/25 13:48:12;;;;;;;4.68;1.85;;;;;;;;;;5022109;28;20555;-68
2023/09/25 13:50:37;;;;;;;6.22;1.83;;;;;;;;;;5026676;28;20276;-67
2023/09/25 13:53:03;;;;;;;5.68;1.75;;;;;;;;;;5022148;28;20116;-66
2023/09/25 13:55:28;;;;;;;8.43;1.73;;;;;;;;;;5026329;28;20069;-67
2023/09/25 13:57:54;;;;;;;6.82;1.85;;;;;;;;;;5027811;28;20028;-66
2023/09/25 14:00:19;;;;;;;5.40;1.67;;;;;;;;;;5025984;28;20021;-68
2023/09/25 14:02:45;;;;;;;6.88;1.70;;;;;;;;;;5027373;28;20024;-67
2023/09/25 14:05:11;;;;;;;5.10;1.63;;;;;;;;;;5017632;28;20034;-66
2023/09/25 14:07:37;;;;;;;6.22;1.50;;;;;;;;;;5025821;28;20071;-67
2023/09/25 14:10:02;;;;;;;8.23;1.45;;;;;;;;;;5025128;28;20029;-69
2023/09/25 14:12:27;;;;;;;4.20;1.15;;;;;;;;;;5027440;28;20383;-67
2023/09/25 14:14:53;;;;;;;2.73;1.40;;;;;;;;;;5026053;28;20021;-67
2023/09/25 14:17:19;;;;;;;6.88;1.20;;;;;;;;;;5026282;28;20262;-68
2023/09/25 14:19:45;;;;;;;6.50;1.20;;;;;;;;;;5020969;28;20511;-68
2023/09/25 14:22:10;;;;;;;2.20;1.05;;;;;;;;;;5024471;28;20045;-63
2023/09/25 14:24:35;;;;;;;5.63;1.65;;;;;;;;;;5028334;28;20071;-68
2023/09/25 14:27:01;;;;;;;12.38;1.52;;;;;;;;;;5025033;28;20044;-68
2023/09/25 14:29:27;;;;;;;4.32;1.35;;;;;;;;;;5027620;28;20033;-68
2023/09/25 14:31:53;;;;;;;4.22;1.55;;;;;;;;;;5028896;28;20419;-65